Leyendecker II PSRC Data

Date Time Air Temperature Relative Humidity Dewpoint Windchill Heat Index Wind Speed Wind Dir. Rain Solar Radiation Soil Temperature
2m 2m 3m 3m 10cm
US/Mountain F % F F F MPH deg in MJ/m^2 F
max avg avg
2021-02-23 00:05:00 31.3 47.3 13.5 31.3 31.3 1.5 6.2 2.4 290.7 276.1 0.00 0.0000000 44.8
2021-02-23 00:10:00 31.2 44.7 12.2 31.2 31.2 1.2 1.5 1.2 307.9 263.9 0.00 0.0000000 44.8
2021-02-23 00:15:00 30.8 45.0 11.9 30.8 30.8 1.3 1.9 1.4 229.0 284.6 0.00 0.0000000 44.8
2021-02-23 00:20:00 31.0 47.3 13.3 31.0 31.0 1.5 2.1 1.8 269.6 246.3 0.00 0.0000000 44.8
2021-02-23 00:25:00 30.7 44.2 11.4 30.7 30.7 0.0 2.4 1.3 241.8 301.5 0.00 0.0000000 44.7
2021-02-23 00:30:00 30.6 52.0 15.0 30.6 30.6 1.3 1.9 1.2 258.1 240.1 0.00 0.0000000 44.7
2021-02-23 00:35:00 30.2 45.1 11.4 30.2 30.2 1.5 1.9 1.6 294.1 287.1 0.00 0.0000000 44.7
2021-02-23 00:40:00 29.9 49.9 13.5 29.9 29.9 1.2 1.9 1.5 192.4 194.3 0.00 0.0000000 44.7
2021-02-23 00:45:00 29.4 49.1 12.6 29.4 29.4 1.0 1.9 1.1 16.7 30.7 0.00 0.0000000 44.6
2021-02-23 00:50:00 29.3 49.6 12.8 29.3 29.3 1.2 1.9 1.4 215.4 277.0 0.00 0.0000000 44.6
2021-02-23 00:55:00 29.6 47.5 12.1 29.6 29.6 1.9 2.4 1.7 289.9 264.0 0.00 0.0000000 44.6
2021-02-23 01:00:00 29.3 50.4 13.1 25.1 29.3 3.8 4.2 3.2 310.5 248.0 0.00 0.0000000 44.5
2021-02-23 01:05:00 28.9 50.3 12.6 28.9 28.9 2.1 3.5 2.3 239.9 225.8 0.00 0.0000000 44.5
2021-02-23 01:10:00 29.2 50.2 12.9 29.2 29.2 1.5 2.6 1.6 249.7 239.5 0.00 0.0000000 44.5
2021-02-23 01:15:00 29.0 54.7 14.7 29.0 29.0 2.8 3.0 2.3 207.5 234.6 0.00 0.0000000 44.5
2021-02-23 01:20:00 28.9 51.1 13.1 28.9 28.9 2.1 3.1 2.5 227.6 220.2 0.00 0.0000000 44.4
2021-02-23 01:25:00 28.6 50.3 12.4 28.6 28.6 2.6 3.0 2.3 302.2 247.8 0.00 0.0000000 44.4
2021-02-23 01:30:00 27.7 48.9 11.0 27.7 27.7 1.9 2.8 2.0 224.0 246.8 0.00 0.0000000 44.4
2021-02-23 01:35:00 27.0 52.5 11.9 27.0 27.0 1.5 3.0 2.3 252.9 182.3 0.00 0.0000000 44.4
2021-02-23 01:40:00 27.4 55.7 13.6 27.4 27.4 1.9 2.1 1.7 188.6 190.0 0.00 0.0000000 44.3
2021-02-23 01:45:00 27.6 53.5 12.9 27.6 27.6 0.0 1.7 0.7 254.9 178.9 0.00 0.0000000 44.3
2021-02-23 01:50:00 27.7 52.7 12.7 27.7 27.7 1.5 2.1 1.4 170.0 197.9 0.00 0.0000000 44.3
2021-02-23 01:55:00 27.8 50.4 11.7 27.8 27.8 3.0 3.1 2.0 233.9 250.8 0.00 0.0000000 44.3
2021-02-23 02:00:00 27.1 52.2 11.9 22.6 27.1 3.8 4.2 3.8 125.5 214.6 0.00 0.0000000 44.3
2021-02-23 02:05:00 26.9 52.4 11.8 22.8 26.9 3.5 4.2 3.4 298.7 199.3 0.00 0.0000000 44.2
2021-02-23 02:10:00 27.1 54.1 12.7 21.8 27.1 4.6 4.6 4.0 283.7 215.2 0.00 0.0000000 44.2
2021-02-23 02:15:00 28.1 47.9 10.8 23.9 28.1 3.7 4.4 3.7 239.6 243.8 0.00 0.0000000 44.2
2021-02-23 02:20:00 29.4 45.0 10.7 25.9 29.4 3.3 4.6 3.9 243.9 230.9 0.00 0.0000000 44.2
2021-02-23 02:25:00 29.4 45.2 10.7 29.4 29.4 0.8 3.1 2.1 302.2 256.5 0.00 0.0000000 44.1
2021-02-23 02:30:00 28.4 47.6 11.0 28.4 28.4 0.0 1.7 0.8 162.8 156.0 0.00 0.0000000 44.1
2021-02-23 02:35:00 27.4 49.0 10.8 27.4 27.4 2.8 3.1 1.8 289.7 275.6 0.00 0.0000000 44.1
2021-02-23 02:40:00 26.5 52.4 11.4 21.7 26.5 4.0 4.4 2.7 316.7 268.2 0.00 0.0000000 44.1
2021-02-23 02:45:00 27.4 50.3 11.4 23.0 27.4 3.8 4.9 4.3 167.8 225.6 0.00 0.0000000 44.0
2021-02-23 02:50:00 28.7 48.5 11.7 24.0 28.7 4.2 4.6 4.0 78.2 236.9 0.00 0.0000000 44.0
2021-02-23 02:55:00 28.8 48.0 11.6 24.8 28.8 3.7 4.2 3.9 273.6 259.2 0.00 0.0000000 44.0
2021-02-23 03:00:00 29.3 46.5 11.3 24.5 29.3 4.4 4.4 3.4 158.8 248.4 0.00 0.0000000 44.0
2021-02-23 03:05:00 29.0 48.0 11.8 29.0 29.0 2.1 4.9 3.7 145.3 267.7 0.00 0.0000000 44.0
2021-02-23 03:10:00 29.3 47.8 12.0 25.6 29.3 3.5 4.4 3.3 244.8 232.4 0.00 0.0000000 43.9
2021-02-23 03:15:00 29.1 48.5 12.1 29.1 29.1 1.5 3.7 2.2 223.9 188.4 0.00 0.0000000 43.9
2021-02-23 03:20:00 28.5 49.6 12.0 28.5 28.5 0.8 1.3 0.8 284.2 270.7 0.00 0.0000000 43.9
2021-02-23 03:25:00 27.9 52.1 12.6 27.9 27.9 1.3 2.4 1.5 232.2 191.8 0.00 0.0000000 43.9
2021-02-23 03:30:00 27.9 52.3 12.7 27.9 27.9 2.1 2.6 2.0 203.7 211.9 0.00 0.0000000 43.8
2021-02-23 03:35:00 28.6 48.5 11.6 25.3 28.6 3.1 3.5 2.7 118.9 202.5 0.00 0.0000000 43.8
2021-02-23 03:40:00 29.3 45.7 11.0 29.3 29.3 2.8 3.3 2.9 267.6 211.9 0.00 0.0000000 43.8
2021-02-23 03:45:00 30.3 42.8 10.4 26.7 30.3 3.5 3.7 3.2 123.1 204.2 0.00 0.0000000 43.8
2021-02-23 03:50:00 31.1 41.1 10.1 26.7 31.1 4.2 4.6 3.8 200.9 164.9 0.00 0.0000000 43.8
2021-02-23 03:55:00 31.6 40.5 10.3 28.0 31.6 3.7 4.6 3.8 121.4 195.7 0.00 0.0000000 43.8
2021-02-23 04:00:00 31.9 39.5 10.0 27.0 31.9 4.9 5.5 4.4 65.9 216.3 0.00 0.0000000 43.7
2021-02-23 04:05:00 31.7 39.6 9.9 31.7 31.7 3.0 4.9 3.5 130.7 194.6 0.00 0.0000000 43.7
2021-02-23 04:10:00 30.1 42.6 10.1 26.3 30.1 3.7 3.7 3.1 265.7 195.4 0.00 0.0000000 43.7
2021-02-23 04:15:00 29.3 49.1 12.6 24.9 29.3 4.0 4.6 4.1 339.5 290.0 0.00 0.0000000 43.7
2021-02-23 04:20:00 28.0 60.0 15.9 24.1 28.0 3.5 4.0 3.3 323.6 347.0 0.00 0.0000000 43.7
2021-02-23 04:25:00 27.0 63.3 16.2 27.0 27.0 1.9 3.3 2.5 343.1 344.1 0.00 0.0000000 43.6
2021-02-23 04:30:00 26.7 59.1 14.3 26.7 26.7 2.2 2.2 1.5 308.3 295.3 0.00 0.0000000 43.6
2021-02-23 04:35:00 27.5 55.2 13.5 27.5 27.5 2.1 2.2 2.1 317.0 257.0 0.00 0.0000000 43.6
2021-02-23 04:40:00 27.7 54.4 13.4 27.7 27.7 2.8 3.1 2.6 260.2 238.7 0.00 0.0000000 43.6
2021-02-23 04:45:00 27.1 56.5 13.6 27.1 27.1 2.4 2.6 2.4 283.9 265.4 0.00 0.0000000 43.6
2021-02-23 04:50:00 26.8 55.4 12.9 26.8 26.8 1.9 2.8 2.3 270.9 258.6 0.00 0.0000000 43.5
2021-02-23 04:55:00 26.5 57.0 13.4 26.5 26.5 1.0 2.1 1.3 242.0 218.1 0.00 0.0000000 43.5
2021-02-23 05:00:00 26.3 58.2 13.6 26.3 26.3 1.5 1.9 1.4 271.1 239.5 0.00 0.0000000 43.5
2021-02-23 05:05:00 26.1 54.4 11.9 26.1 26.1 2.2 2.2 1.6 274.6 246.0 0.00 0.0000000 43.5
2021-02-23 05:10:00 26.5 53.0 11.7 26.5 26.5 2.4 3.1 2.7 242.6 237.3 0.00 0.0000000 43.5
2021-02-23 05:15:00 27.0 50.6 11.1 23.2 27.0 3.3 3.5 3.1 252.0 201.5 0.00 0.0000000 43.4
2021-02-23 05:20:00 27.8 48.2 10.7 23.6 27.8 3.7 3.8 3.6 189.2 229.9 0.00 0.0000000 43.4
2021-02-23 05:25:00 28.0 50.8 12.1 24.6 28.0 3.1 4.0 3.4 163.1 198.3 0.00 0.0000000 43.4
2021-02-23 05:30:00 27.9 51.7 12.4 27.9 27.9 1.9 2.8 2.3 89.0 205.9 0.00 0.0000000 43.4
2021-02-23 05:35:00 28.3 49.5 11.8 28.3 28.3 1.7 2.1 1.8 89.6 246.6 0.00 0.0000000 43.4
2021-02-23 05:40:00 28.1 52.4 12.8 28.1 28.1 1.3 2.1 1.8 214.7 218.6 0.00 0.0000000 43.4
2021-02-23 05:45:00 27.1 53.7 12.6 27.1 27.1 0.8 1.5 1.2 188.0 184.8 0.00 0.0000000 43.4
2021-02-23 05:50:00 26.3 52.2 11.1 26.3 26.3 1.5 1.5 0.3 95.3 65.5 0.00 0.0000000 43.3
2021-02-23 05:55:00 25.4 53.1 10.7 25.4 25.4 1.5 1.5 1.1 13.0 23.5 0.00 0.0000000 43.3
2021-02-23 06:00:00 25.0 58.3 12.4 25.0 25.0 2.2 2.2 1.7 332.5 303.0 0.00 0.0000000 43.3
2021-02-23 06:05:00 24.8 57.4 11.9 24.8 24.8 1.9 2.2 1.9 305.5 260.3 0.00 0.0000000 43.3
2021-02-23 06:10:00 24.6 58.1 11.9 24.6 24.6 0.0 2.1 1.3 195.4 264.4 0.00 0.0000000 43.2
2021-02-23 06:15:00 24.1 60.0 12.2 24.1 24.1 0.0 0.8 0.0 262.8 233.4 0.00 0.0000000 43.2
2021-02-23 06:20:00 23.8 62.8 12.9 23.8 23.8 0.0 0.0 0.0 29.8 0.0 0.00 0.0000000 43.2
2021-02-23 06:25:00 24.5 61.5 13.2 24.5 24.5 1.9 2.2 1.6 51.5 32.6 0.00 0.0000000 43.2
2021-02-23 06:30:00 24.4 62.9 13.6 24.4 24.4 2.4 2.4 2.1 29.8 28.1 0.00 0.0000000 43.2
2021-02-23 06:35:00 24.7 69.4 16.1 24.7 24.7 1.7 2.2 1.8 20.9 14.3 0.00 0.0000470 43.1
2021-02-23 06:40:00 24.7 67.8 15.6 24.7 24.7 1.9 2.1 1.6 294.1 356.0 0.00 0.0005972 43.2
2021-02-23 06:45:00 24.8 62.5 13.8 24.8 24.8 1.7 2.1 1.8 282.6 254.5 0.00 0.0014747 43.1
2021-02-23 06:50:00 24.8 64.2 14.4 24.8 24.8 1.9 2.2 2.0 192.4 252.8 0.00 0.0047897 43.1
2021-02-23 06:55:00 24.8 66.6 15.3 21.0 24.8 3.1 3.1 2.5 314.7 259.1 0.00 0.0127721 43.1
2021-02-23 07:00:00 25.1 64.0 14.6 25.1 25.1 1.9 3.1 2.5 267.6 230.4 0.00 0.0196117 43.1
2021-02-23 07:05:00 25.6 62.4 14.5 25.6 25.6 2.2 2.2 1.9 177.0 248.3 0.00 0.0243469 43.1
2021-02-23 07:10:00 26.2 60.0 14.2 26.2 26.2 2.2 2.8 2.4 276.9 262.8 0.00 0.0290954 43.0
2021-02-23 07:15:00 27.5 54.0 13.0 27.5 27.5 1.9 2.4 2.0 44.9 221.1 0.00 0.0340025 43.0
2021-02-23 07:20:00 28.9 51.0 13.0 28.9 28.9 2.4 2.8 2.4 119.3 184.5 0.00 0.0388742 43.0
2021-02-23 07:25:00 29.3 49.2 12.6 24.9 29.3 4.0 4.0 3.3 107.4 216.6 0.00 0.0437237 43.0
2021-02-23 07:30:00 30.0 47.3 12.3 30.0 30.0 2.4 3.8 3.1 182.9 186.6 0.00 0.0486676 42.9
2021-02-23 07:35:00 31.1 45.8 12.6 31.1 31.1 2.8 3.7 2.9 133.6 248.0 0.00 0.0535993 42.9
2021-02-23 07:40:00 32.5 42.2 12.1 29.7 32.5 3.1 3.7 3.2 160.1 224.3 0.00 0.0586279 42.9
2021-02-23 07:45:00 33.8 38.5 11.1 30.3 33.8 3.8 4.0 3.4 237.1 259.9 0.00 0.0636913 42.9
2021-02-23 07:50:00 34.9 39.4 12.7 32.0 34.9 3.5 4.2 3.5 212.5 242.4 0.00 0.0687145 42.9
2021-02-23 07:55:00 35.7 39.7 13.5 35.7 35.7 2.8 3.3 2.7 1.6 357.7 0.00 0.0741650 42.9
2021-02-23 08:00:00 36.3 37.1 12.5 36.3 36.3 3.0 3.5 2.8 329.3 350.9 0.00 0.0793432 42.8
2021-02-23 08:05:00 37.2 36.3 12.8 34.8 37.2 3.3 3.8 3.2 138.1 252.6 0.00 0.0842539 42.8
2021-02-23 08:10:00 38.0 36.6 13.7 34.8 38.0 4.2 4.7 3.7 72.1 257.5 0.00 0.0894127 42.8
2021-02-23 08:15:00 38.9 36.1 14.3 35.7 38.9 4.4 5.1 3.9 324.6 268.0 0.00 0.0948018 42.8
2021-02-23 08:20:00 40.4 29.9 11.3 35.5 40.4 7.1 7.1 4.1 207.9 244.8 0.00 0.1003501 42.8
2021-02-23 08:25:00 40.8 31.0 12.5 36.8 40.8 5.8 7.1 5.7 297.6 232.1 0.00 0.1055653 42.8
2021-02-23 08:30:00 41.3 30.9 12.8 37.5 41.3 5.6 7.1 5.5 202.9 218.4 0.00 0.1112066 42.8
2021-02-23 08:35:00 42.3 29.2 12.5 39.5 42.3 4.6 6.5 5.4 212.9 245.5 0.00 0.1168174 42.8
2021-02-23 08:40:00 43.1 28.9 12.9 40.4 43.1 4.6 5.8 4.5 206.3 235.1 0.00 0.1227616 42.8
2021-02-23 08:45:00 43.5 28.9 13.3 41.1 43.5 4.4 5.8 4.8 1.3 235.1 0.00 0.1249828 42.8
2021-02-23 08:50:00 44.5 27.2 12.7 41.8 44.5 4.9 6.2 4.8 314.5 294.2 0.00 0.1322860 42.8
2021-02-23 08:55:00 45.9 25.7 12.6 43.5 45.9 4.7 5.3 4.1 211.5 254.2 0.00 0.1333733 42.8
2021-02-23 09:00:00 46.5 25.8 13.2 44.8 46.5 4.0 6.0 4.6 335.3 277.3 0.00 0.1484396 42.8
2021-02-23 09:05:00 47.0 25.8 13.6 45.5 47.0 3.8 6.9 5.4 0.6 308.9 0.00 0.1524087 42.8
2021-02-23 09:10:00 47.4 24.0 12.4 47.4 47.4 1.9 5.5 3.9 194.4 320.1 0.00 0.1548260 42.8
2021-02-23 09:15:00 47.9 23.4 12.3 45.7 47.9 5.1 5.1 3.6 236.5 218.8 0.00 0.1583967 42.8
2021-02-23 09:20:00 49.0 23.7 13.4 49.0 49.0 1.2 5.1 2.6 273.0 212.8 0.00 0.1630939 42.8
2021-02-23 09:25:00 49.4 22.1 12.2 48.8 49.4 3.1 6.3 4.0 227.1 226.2 0.00 0.1653048 42.9
2021-02-23 09:30:00 49.9 21.6 12.1 49.9 49.9 2.8 4.7 3.4 211.6 226.2 0.00 0.1724705 42.9
2021-02-23 09:35:00 50.5 21.9 12.9 50.5 50.5 1.5 5.5 3.1 256.6 227.7 0.00 0.1774492 42.9
2021-02-23 09:40:00 51.1 21.5 13.0 51.1 51.1 4.6 5.5 3.4 182.9 217.8 0.00 0.1816533 42.9
2021-02-23 09:45:00 51.1 22.2 13.7 51.1 51.1 3.3 4.9 3.6 51.1 231.9 0.00 0.1869676 42.9
2021-02-23 09:50:00 51.7 20.3 12.1 51.7 51.7 3.3 5.3 4.0 237.6 247.4 0.00 0.1883224 43.0
2021-02-23 09:55:00 52.6 20.1 12.7 52.6 52.6 3.5 5.3 3.2 145.6 206.0 0.00 0.1955474 43.0
2021-02-23 10:00:00 53.6 19.4 12.7 53.6 53.6 1.7 4.6 2.8 24.8 238.9 0.00 0.1994535 43.0
2021-02-23 10:05:00 54.1 19.7 13.6 54.1 54.1 2.4 5.1 3.4 290.5 245.9 0.00 0.2038370 43.0
2021-02-23 10:10:00 54.9 18.1 12.3 54.9 54.9 1.2 3.3 2.2 343.6 276.7 0.00 0.2074547 43.1
2021-02-23 10:15:00 56.4 17.5 12.8 56.4 56.4 1.3 3.7 2.1 334.4 2.4 0.00 0.2114477 43.1
2021-02-23 10:20:00 56.6 15.9 10.8 56.6 56.6 2.8 3.7 3.0 19.7 333.8 0.00 0.2151331 43.2
2021-02-23 10:25:00 57.6 15.8 11.4 57.6 57.6 2.6 2.8 2.1 55.0 16.0 0.00 0.2193072 43.2
2021-02-23 10:30:00 57.4 16.1 11.6 57.4 57.4 2.1 4.7 2.7 28.9 39.6 0.00 0.2238956 43.2
2021-02-23 10:35:00 58.1 15.4 11.3 58.1 58.1 4.0 4.2 2.3 127.2 76.5 0.00 0.2261660 43.3
2021-02-23 10:40:00 59.1 14.2 10.2 59.1 59.1 2.8 3.3 2.0 116.7 108.6 0.00 0.2285086 43.3
2021-02-23 10:45:00 59.3 14.3 10.5 59.3 59.3 2.1 3.7 2.4 7.9 8.2 0.00 0.2314738 43.4
2021-02-23 10:50:00 60.2 14.0 10.7 60.2 60.2 2.4 3.1 2.1 16.9 2.0 0.00 0.2346086 43.4
2021-02-23 10:55:00 60.9 13.6 10.7 60.9 60.9 3.8 4.2 2.8 114.1 120.0 0.00 0.2378776 43.5
2021-02-23 11:00:00 60.4 13.9 10.7 60.4 60.4 2.6 4.7 3.3 202.5 109.6 0.00 0.2405038 43.5
2021-02-23 11:05:00 61.1 13.4 10.5 61.1 61.1 4.4 5.3 3.6 133.4 211.1 0.00 0.2427365 43.6
2021-02-23 11:10:00 61.4 13.6 11.1 61.4 61.4 2.2 5.6 2.8 311.0 161.3 0.00 0.2427335 43.6
2021-02-23 11:15:00 62.7 12.1 9.4 62.7 62.7 5.6 5.6 2.5 176.1 177.1 0.00 0.2466616 43.7
2021-02-23 11:20:00 61.9 11.8 8.3 61.9 61.9 4.2 7.8 6.1 155.7 158.4 0.00 0.2496656 43.7
2021-02-23 11:25:00 62.6 11.6 8.4 62.6 62.6 2.6 5.3 3.2 111.8 139.8 0.00 0.2511358 43.8
2021-02-23 11:30:00 63.0 11.8 9.2 63.0 63.0 2.8 5.3 3.2 277.6 197.0 0.00 0.2519199 43.8
2021-02-23 11:35:00 62.4 13.7 12.1 62.4 62.4 4.7 6.2 3.9 225.3 202.1 0.00 0.2545090 43.9
2021-02-23 11:40:00 62.7 13.5 12.0 62.7 62.7 3.1 6.5 3.4 178.3 83.9 0.00 0.2571531 44.0
2021-02-23 11:45:00 63.9 11.3 8.8 63.9 63.9 1.9 4.2 2.9 296.2 115.7 0.00 0.2581669 44.0
2021-02-23 11:50:00 64.0 12.3 10.8 64.0 64.0 3.7 4.9 3.6 318.2 22.9 0.00 0.2584006 44.1
2021-02-23 11:55:00 64.4 11.8 10.3 64.4 64.4 1.5 5.8 3.3 314.8 71.5 0.00 0.2589520 44.2
2021-02-23 12:00:00 65.1 10.4 8.0 65.1 65.1 3.0 7.6 4.2 30.7 86.2 0.00 0.2606605 44.3
2021-02-23 12:05:00 64.7 10.9 8.7 64.7 64.7 3.0 5.8 3.8 7.5 43.5 0.00 0.2621574 44.3
2021-02-23 12:10:00 65.9 11.0 9.8 65.9 65.9 3.5 4.2 3.5 45.7 344.9 0.00 0.2630561 44.4
2021-02-23 12:15:00 66.3 8.9 5.6 66.3 66.3 6.0 6.3 3.8 190.2 352.6 0.00 0.2637367 44.5
2021-02-23 12:20:00 66.7 9.1 6.3 66.7 66.7 2.1 8.3 5.4 143.1 202.1 0.00 0.2641146 44.5
2021-02-23 12:25:00 66.8 8.2 3.9 66.8 66.8 4.2 10.5 6.7 250.1 182.9 0.00 0.2639011 44.6
2021-02-23 12:30:00 66.9 8.0 3.5 66.9 66.9 2.8 7.8 4.9 293.1 249.2 0.00 0.2639041 44.7
2021-02-23 12:35:00 67.3 8.4 4.8 67.3 67.3 4.7 6.3 4.2 199.2 210.8 0.00 0.2633608 44.8
2021-02-23 12:40:00 67.9 7.8 3.9 67.9 67.9 5.8 8.3 5.7 235.3 222.2 0.00 0.2629026 44.9
2021-02-23 12:45:00 68.2 7.6 3.4 68.2 68.2 7.1 9.9 5.7 216.0 260.8 0.00 0.2625566 44.9
2021-02-23 12:50:00 67.9 7.5 3.0 67.9 67.9 9.9 10.8 7.0 192.3 202.6 0.00 0.2618161 45.0
2021-02-23 12:55:00 68.4 7.2 2.4 68.4 68.4 5.3 10.5 6.2 249.0 221.5 0.00 0.2608419 45.1
2021-02-23 13:00:00 68.4 7.7 4.0 68.4 68.4 3.8 11.0 6.2 143.0 215.0 0.00 0.2601173 45.2
2021-02-23 13:05:00 70.3 7.2 3.7 70.3 70.3 5.8 7.4 4.7 266.0 219.7 0.00 0.2592068 45.2
2021-02-23 13:10:00 69.5 7.6 4.5 69.5 69.5 3.5 6.9 4.8 198.3 247.2 0.00 0.2573105 45.3
2021-02-23 13:15:00 70.1 7.1 3.3 70.1 70.1 7.6 7.6 4.1 271.8 262.4 0.00 0.2558735 45.4
2021-02-23 13:20:00 69.6 7.4 4.0 69.6 69.6 2.6 7.6 5.2 24.9 283.4 0.00 0.2538656 45.5
2021-02-23 13:25:00 70.3 7.7 5.3 70.3 70.3 4.9 4.9 3.2 16.5 31.4 0.00 0.2520822 45.5
2021-02-23 13:30:00 71.5 8.7 8.8 71.5 71.5 2.6 6.9 3.9 91.5 280.9 0.00 0.2502997 45.6
2021-02-23 13:35:00 72.6 7.5 6.3 72.6 72.6 3.8 5.5 3.4 244.9 143.4 0.00 0.2480541 45.7
2021-02-23 13:40:00 71.4 6.6 2.6 71.4 71.4 4.2 8.7 5.5 310.9 250.5 0.00 0.2455443 45.7
2021-02-23 13:45:00 71.0 6.8 3.1 71.0 71.0 1.5 8.1 4.0 97.9 24.2 0.00 0.2429467 45.9
2021-02-23 13:50:00 71.9 7.1 4.6 71.9 71.9 5.3 6.5 4.1 162.9 200.0 0.00 0.2405476 45.9
2021-02-23 13:55:00 72.1 6.9 4.4 72.1 72.1 5.5 7.8 5.2 160.1 172.0 0.00 0.2373234 46.0
2021-02-23 14:00:00 72.0 5.8 0.3 72.0 72.0 6.0 8.7 5.8 260.1 181.3 0.00 0.2350428 46.1
2021-02-23 14:05:00 73.5 4.7 -3.0 73.5 73.5 6.9 12.6 7.4 292.9 239.9 0.00 0.2332113 46.1
2021-02-23 14:10:00 72.6 5.0 -2.2 72.6 72.6 4.7 11.9 7.6 287.7 234.0 0.00 0.2302371 46.2
2021-02-23 14:15:00 72.9 4.4 -4.7 72.9 72.9 11.3 13.0 7.2 185.1 218.3 0.00 0.2268872 46.3
2021-02-23 14:20:00 72.5 4.7 -3.6 72.5 72.5 7.4 10.5 7.7 237.4 218.2 0.00 0.2233375 46.3
2021-02-23 14:25:00 72.2 4.6 -4.4 72.2 72.2 8.3 14.9 10.6 215.9 235.9 0.00 0.2201108 46.4
2021-02-23 14:30:00 72.8 4.8 -3.1 72.8 72.8 8.5 9.7 6.6 236.8 228.5 0.00 0.2167471 46.5
2021-02-23 14:35:00 72.6 5.0 -2.2 72.6 72.6 7.6 12.8 8.4 246.7 224.4 0.00 0.2127058 46.5
2021-02-23 14:40:00 72.8 4.7 -3.7 72.8 72.8 11.5 13.1 9.9 252.7 243.5 0.00 0.2090594 46.6
2021-02-23 14:45:00 72.5 5.2 -1.4 72.5 72.5 6.9 12.1 8.0 225.1 228.5 0.00 0.2047329 46.7
2021-02-23 14:50:00 72.6 5.0 -2.5 72.6 72.6 5.8 11.7 7.9 218.0 233.9 0.00 0.2005833 46.7
2021-02-23 14:55:00 72.4 4.9 -3.1 72.4 72.4 11.9 11.9 7.6 221.5 226.8 0.00 0.1961951 46.8
2021-02-23 15:00:00 72.9 4.9 -2.7 72.9 72.9 8.7 10.6 6.8 252.7 241.2 0.00 0.1912624 46.9
2021-02-23 15:05:00 72.9 5.7 0.8 72.9 72.9 7.6 14.4 9.0 258.5 254.1 0.00 0.1868659 46.9
2021-02-23 15:10:00 73.9 4.4 -4.0 73.9 73.9 8.8 9.2 6.0 244.6 248.6 0.00 0.1825331 46.9
2021-02-23 15:15:00 73.2 5.0 -2.0 73.2 73.2 5.6 12.2 8.0 197.7 235.7 0.00 0.1773269 47.0
2021-02-23 15:20:00 72.6 4.9 -2.8 72.6 72.6 8.8 14.2 10.4 248.2 234.8 0.00 0.1714614 47.0
2021-02-23 15:25:00 72.9 5.1 -1.8 72.9 72.9 7.2 10.6 7.1 186.1 248.2 0.00 0.1123786 47.1
2021-02-23 15:30:00 72.6 6.0 1.7 72.6 72.6 6.0 11.9 7.1 225.6 226.8 0.00 0.1615239 47.1
2021-02-23 15:35:00 73.8 5.4 0.1 73.8 73.8 6.2 8.5 6.2 272.5 245.3 0.00 0.1564477 47.1
2021-02-23 15:40:00 74.0 5.0 -1.3 74.0 74.0 9.6 9.6 6.9 276.0 247.4 0.00 0.1509879 47.2
2021-02-23 15:45:00 74.0 5.4 0.2 74.0 74.0 5.5 8.5 5.8 248.0 243.7 0.00 0.1453458 47.2
2021-02-23 15:50:00 73.9 5.6 1.0 73.9 73.9 5.6 9.9 6.0 251.1 231.8 0.00 0.1402507 47.2
2021-02-23 15:55:00 74.5 4.2 -4.4 74.5 74.5 6.5 9.6 6.5 220.2 247.5 0.00 0.1349928 47.2
2021-02-23 16:00:00 74.4 4.3 -4.1 74.4 74.4 6.2 10.5 6.5 237.8 243.4 0.00 0.1297565 47.3
2021-02-23 16:05:00 73.9 4.7 -2.8 73.9 73.9 5.3 11.7 7.3 257.7 231.7 0.00 0.1241172 47.3
2021-02-23 16:10:00 74.7 4.1 -4.9 74.7 74.7 9.9 9.9 6.9 280.0 249.0 0.00 0.1194679 47.3
2021-02-23 16:15:00 74.5 4.5 -3.3 74.5 74.5 6.5 16.0 7.8 264.4 246.7 0.00 0.1139381 47.3
2021-02-23 16:20:00 74.7 4.6 -2.6 74.7 74.7 7.4 10.6 7.8 264.6 251.6 0.00 0.1086640 47.3
2021-02-23 16:25:00 74.4 4.7 -2.6 74.4 74.4 7.8 12.8 8.0 267.2 268.9 0.00 0.1027867 47.3
2021-02-23 16:30:00 74.5 4.3 -4.2 74.5 74.5 12.2 12.4 8.0 265.3 261.2 0.00 0.0976619 47.4
2021-02-23 16:35:00 74.1 4.2 -4.6 74.1 74.1 7.1 13.5 8.8 266.6 266.5 0.00 0.0919568 47.4
2021-02-23 16:40:00 74.1 4.1 -5.5 74.1 74.1 8.7 14.9 9.7 243.7 260.1 0.00 0.0869132 47.4
2021-02-23 16:45:00 74.5 4.2 -4.5 74.5 74.5 7.8 8.7 5.6 263.1 263.4 0.00 0.0816428 47.4
2021-02-23 16:50:00 74.1 3.3 -10.1 74.1 74.1 11.7 17.1 9.5 251.4 259.3 0.00 0.0761132 47.4
2021-02-23 16:55:00 73.7 3.8 -7.2 73.7 73.7 7.6 13.7 9.0 293.1 267.3 0.00 0.0708899 47.4
2021-02-23 17:00:00 73.6 4.0 -6.2 73.6 73.6 11.0 15.6 10.2 241.6 262.8 0.00 0.0655140 47.5
2021-02-23 17:05:00 73.4 4.1 -5.8 73.4 73.4 9.0 11.3 8.5 249.0 266.6 0.00 0.0599782 47.5
2021-02-23 17:10:00 72.8 4.3 -5.2 72.8 72.8 8.8 11.9 9.0 250.2 270.8 0.00 0.0546728 47.5
2021-02-23 17:15:00 72.8 4.3 -5.4 72.8 72.8 8.8 11.3 8.4 266.3 270.0 0.00 0.0495194 47.5
2021-02-23 17:20:00 72.5 4.3 -5.4 72.5 72.5 11.5 11.9 8.2 281.5 265.1 0.00 0.0443981 47.5
2021-02-23 17:25:00 72.1 4.7 -4.2 72.1 72.1 9.2 12.2 9.8 252.7 275.2 0.00 0.0391264 47.5
2021-02-23 17:30:00 71.4 5.1 -2.9 71.4 71.4 5.1 14.0 9.2 286.9 271.9 0.00 0.0290626 47.5
2021-02-23 17:35:00 70.9 5.2 -2.5 70.9 70.9 10.8 12.1 8.5 293.7 272.4 0.00 0.0145758 47.5
2021-02-23 17:40:00 70.5 5.3 -2.7 70.5 70.5 13.0 13.0 9.0 267.4 270.6 0.00 0.0074130 47.5
2021-02-23 17:45:00 70.3 5.6 -1.4 70.3 70.3 6.9 14.0 8.1 285.9 273.8 0.00 0.0089080 47.5
2021-02-23 17:50:00 69.6 5.7 -1.8 69.6 69.6 8.0 11.2 6.6 282.6 277.4 0.00 0.0034702 47.5
2021-02-23 17:55:00 69.2 5.7 -2.0 69.2 69.2 6.5 9.6 7.0 246.8 269.1 0.00 0.0011600 47.5
2021-02-23 18:00:00 69.2 5.6 -2.2 69.2 69.2 7.8 11.9 8.6 264.0 265.7 0.00 0.0003790 47.5
2021-02-23 18:05:00 68.6 5.6 -2.6 68.6 68.6 8.8 9.6 7.0 260.4 266.9 0.00 0.0000000 47.5
2021-02-23 18:10:00 68.1 5.8 -2.3 68.1 68.1 8.3 8.8 6.0 259.6 268.4 0.00 0.0000000 47.5
2021-02-23 18:15:00 67.5 5.9 -2.5 67.5 67.5 5.3 9.6 6.0 278.9 266.5 0.00 0.0000000 47.5
2021-02-23 18:20:00 67.4 5.5 -4.0 67.4 67.4 9.0 12.1 7.8 253.7 261.8 0.00 0.0000000 47.5
2021-02-23 18:25:00 67.1 5.3 -4.9 67.1 67.1 7.6 11.0 6.7 280.4 269.5 0.00 0.0000000 47.4
2021-02-23 18:30:00 66.8 5.2 -5.4 66.8 66.8 8.5 10.6 6.8 263.5 262.8 0.00 0.0000000 47.5
2021-02-23 18:35:00 66.5 5.2 -5.8 66.5 66.5 3.5 9.0 6.4 288.8 271.3 0.00 0.0000000 47.4
2021-02-23 18:40:00 65.9 5.4 -5.4 65.9 65.9 6.0 7.6 5.0 261.2 275.5 0.00 0.0000000 47.4
2021-02-23 18:45:00 65.9 5.3 -5.7 65.9 65.9 9.4 9.4 6.0 259.6 272.6 0.00 0.0000000 47.4
2021-02-23 18:50:00 65.5 5.6 -5.0 65.5 65.5 5.1 9.0 5.8 290.3 284.6 0.00 0.0000000 47.4
2021-02-23 18:55:00 64.7 6.0 -4.2 64.7 64.7 3.0 5.3 3.6 265.4 284.8 0.00 0.0000000 47.4
2021-02-23 19:00:00 63.2 7.1 -1.8 63.2 63.2 3.1 4.4 3.2 338.7 299.6 0.00 0.0000000 47.4
2021-02-23 19:05:00 62.0 8.5 1.3 62.0 62.0 4.7 6.3 4.4 337.0 305.7 0.00 0.0000000 47.3
2021-02-23 19:10:00 60.6 9.1 1.6 60.6 60.6 5.1 5.5 4.3 305.6 307.6 0.00 0.0000000 47.3
2021-02-23 19:15:00 60.3 8.6 0.2 60.3 60.3 3.8 5.3 4.0 325.5 309.1 0.00 0.0000000 47.3
2021-02-23 19:20:00 60.4 8.2 -0.7 60.4 60.4 3.8 5.1 3.8 299.1 324.0 0.00 0.0000000 47.3
2021-02-23 19:25:00 60.4 8.1 -1.0 60.4 60.4 3.7 4.2 3.5 342.3 340.6 0.00 0.0000000 47.3
2021-02-23 19:30:00 59.6 9.6 1.9 59.6 59.6 3.1 4.4 3.4 41.9 16.6 0.00 0.0000000 47.3
2021-02-23 19:35:00 57.8 9.8 1.0 57.8 57.8 0.8 3.0 2.1 69.4 48.3 0.00 0.0000000 47.3
2021-02-23 19:40:00 56.2 10.7 1.8 56.2 56.2 0.0 1.3 0.6 61.5 73.5 0.00 0.0000000 47.2
2021-02-23 19:45:00 55.7 10.9 1.7 55.7 55.7 1.0 1.5 0.9 34.6 83.1 0.00 0.0000000 47.2
2021-02-23 19:50:00 55.0 11.9 3.1 55.0 55.0 1.2 1.2 0.1 125.7 11.4 0.00 0.0000000 47.2
2021-02-23 19:55:00 54.5 13.7 5.7 54.5 54.5 1.0 1.5 1.0 154.5 132.6 0.00 0.0000000 47.2
2021-02-23 20:00:00 54.0 14.3 6.4 54.0 54.0 1.3 1.9 1.3 91.5 98.4 0.00 0.0000000 47.1
2021-02-23 20:05:00 52.9 15.2 6.7 52.9 52.9 1.5 2.6 1.6 171.2 124.3 0.00 0.0000000 47.1
2021-02-23 20:10:00 53.2 12.6 3.0 53.2 53.2 1.9 2.4 2.0 159.7 161.6 0.00 0.0000000 47.1
2021-02-23 20:15:00 52.8 12.1 1.6 52.8 52.8 2.1 3.3 1.8 105.4 168.2 0.00 0.0000000 47.1
2021-02-23 20:20:00 52.2 12.8 2.4 52.2 52.2 1.7 2.6 1.5 134.3 170.4 0.00 0.0000000 47.0
2021-02-23 20:25:00 52.0 13.5 3.5 52.0 52.0 0.0 2.1 1.1 43.6 112.3 0.00 0.0000000 47.0
2021-02-23 20:30:00 52.4 13.8 4.3 52.4 52.4 1.0 1.7 0.8 81.9 70.4 0.00 0.0000000 47.0
2021-02-23 20:35:00 51.7 14.2 4.3 51.7 51.7 0.0 0.8 0.1 0.3 81.9 0.00 0.0000000 46.9
2021-02-23 20:40:00 50.8 15.1 4.8 50.8 50.8 0.0 0.0 0.0 287.8 0.0 0.00 0.0000000 46.9
2021-02-23 20:45:00 50.0 13.9 2.4 50.0 50.0 2.4 2.8 1.9 226.6 250.0 0.00 0.0000000 46.9
2021-02-23 20:50:00 50.8 13.1 1.9 50.8 50.8 2.8 3.3 2.7 240.1 243.1 0.00 0.0000000 46.9
2021-02-23 20:55:00 50.3 13.6 2.2 50.3 50.3 3.1 3.5 3.1 243.3 236.3 0.00 0.0000000 46.8
2021-02-23 21:00:00 49.3 15.8 4.7 49.3 49.3 2.8 3.5 3.1 238.5 241.7 0.00 0.0000000 46.8
2021-02-23 21:05:00 47.9 17.0 5.1 47.9 47.9 2.4 3.3 2.8 243.4 242.9 0.00 0.0000000 46.8
2021-02-23 21:10:00 46.5 19.5 7.0 46.5 46.5 2.1 2.8 2.4 241.7 240.0 0.00 0.0000000 46.7
2021-02-23 21:15:00 45.1 19.8 6.2 45.1 45.1 2.1 2.2 1.8 279.3 266.6 0.00 0.0000000 46.7
2021-02-23 21:20:00 44.7 21.2 7.3 44.7 44.7 3.0 3.1 2.7 247.4 242.3 0.00 0.0000000 46.7
2021-02-23 21:25:00 44.1 21.6 7.3 44.1 44.1 1.7 2.8 2.2 253.7 248.4 0.00 0.0000000 46.6
2021-02-23 21:30:00 43.2 22.7 7.5 43.2 43.2 2.4 3.1 2.4 308.6 303.3 0.00 0.0000000 46.6
2021-02-23 21:35:00 42.4 22.3 6.6 42.4 42.4 1.7 2.1 1.6 266.0 273.5 0.00 0.0000000 46.6
2021-02-23 21:40:00 42.3 21.7 5.8 42.3 42.3 1.5 2.1 1.7 300.4 278.7 0.00 0.0000000 46.5
2021-02-23 21:45:00 42.3 21.9 6.0 42.3 42.3 1.0 1.9 1.5 291.5 295.5 0.00 0.0000000 46.5
2021-02-23 21:50:00 41.9 22.4 6.2 41.9 41.9 0.8 1.2 1.0 332.7 296.5 0.00 0.0000000 46.5
2021-02-23 21:55:00 41.6 25.0 8.4 41.6 41.6 1.7 1.9 1.1 211.0 239.1 0.00 0.0000000 46.4
2021-02-23 22:00:00 41.7 24.6 8.1 41.7 41.7 2.4 2.6 2.1 224.2 226.4 0.00 0.0000000 46.4
2021-02-23 22:05:00 41.3 24.1 7.3 41.3 41.3 2.2 2.8 2.2 236.1 252.7 0.00 0.0000000 46.4
2021-02-23 22:10:00 41.4 22.0 5.4 41.4 41.4 2.8 4.0 2.6 303.9 255.0 0.00 0.0000000 46.3
2021-02-23 22:15:00 40.6 24.5 7.0 40.6 40.6 3.0 3.1 2.8 303.0 289.1 0.00 0.0000000 46.3
2021-02-23 22:20:00 40.0 25.8 7.7 40.0 40.0 2.6 3.5 2.9 294.7 281.4 0.00 0.0000000 46.3
2021-02-23 22:25:00 39.5 26.9 8.2 39.5 39.5 2.8 3.3 2.5 237.4 292.2 0.00 0.0000000 46.3
2021-02-23 22:30:00 38.9 32.5 11.8 36.7 38.9 3.3 4.2 3.3 6.2 336.7 0.00 0.0000000 46.2
2021-02-23 22:35:00 39.0 25.4 6.5 39.0 39.0 1.9 3.1 2.0 280.2 294.7 0.00 0.0000000 46.2
2021-02-23 22:40:00 39.5 30.6 11.0 39.5 39.5 2.4 2.8 2.1 343.0 357.1 0.00 0.0000000 46.1
2021-02-23 22:45:00 39.8 27.8 9.2 39.8 39.8 1.2 2.4 1.6 331.2 340.3 0.00 0.0000000 46.1
2021-02-23 22:50:00 39.8 27.7 9.1 39.8 39.8 0.8 1.5 1.1 22.8 6.2 0.00 0.0000000 46.1
2021-02-23 22:55:00 39.5 26.8 8.0 39.5 39.5 0.0 1.3 0.6 19.6 21.9 0.00 0.0000000 46.1
2021-02-23 23:00:00 39.3 29.1 9.8 39.3 39.3 1.3 1.5 0.8 237.3 194.6 0.00 0.0000000 46.0
2021-02-23 23:05:00 39.2 31.6 11.5 39.2 39.2 1.9 2.1 1.3 289.3 234.8 0.00 0.0000000 46.0
2021-02-23 23:10:00 38.5 29.8 9.6 38.5 38.5 2.4 2.6 2.0 235.3 273.9 0.00 0.0000000 46.0
2021-02-23 23:15:00 38.5 25.2 5.9 38.5 38.5 1.9 2.8 2.1 256.8 249.1 0.00 0.0000000 45.9
2021-02-23 23:20:00 38.9 27.2 7.9 38.9 38.9 2.2 3.0 2.2 251.1 253.9 0.00 0.0000000 45.9
2021-02-23 23:25:00 38.1 26.9 7.0 38.1 38.1 2.2 2.8 2.3 264.9 268.2 0.00 0.0000000 45.9
2021-02-23 23:30:00 37.2 28.2 7.1 37.2 37.2 2.1 3.1 2.2 281.9 278.0 0.00 0.0000000 45.8
2021-02-23 23:35:00 37.1 29.0 7.7 37.1 37.1 2.8 3.0 2.5 254.8 262.2 0.00 0.0000000 45.8
2021-02-23 23:40:00 37.2 31.5 9.6 37.2 37.2 2.1 2.8 2.3 266.9 252.4 0.00 0.0000000 45.8
2021-02-23 23:45:00 36.5 31.0 8.8 36.5 36.5 2.1 2.4 1.7 233.8 270.9 0.00 0.0000000 45.8
2021-02-23 23:50:00 36.3 32.1 9.3 36.3 36.3 1.7 2.2 1.8 258.3 270.9 0.00 0.0000000 45.7
2021-02-23 23:55:00 35.4 34.3 10.0 35.4 35.4 2.4 2.4 1.6 310.3 306.0 0.00 0.0000000 45.7
2021-02-24 00:00:00 35.0 32.9 8.7 35.0 35.0 2.1 2.6 1.7 209.2 267.5 0.00 0.0000000 45.7

Data is courtesy of the NM Climate Center. DO NOT USE IN LEGAL PROCEEDINGS.